Impacts TAF Board
For situational awareness. Not to be used for flight planning purposes.
IDs:

KMSP - Minneapolis-St Paul, MN, US

Issued at 2054 UTC 23 May 2022
Updated at 2259 UTC 23 May 2022
Potential Impact None Slight Moderate High
Time2253Z 23/23Z 24/00Z 24/01Z 24/02Z 24/03Z 24/04Z 24/05Z 24/06Z 24/07Z 24/08Z 24/09Z 24/10Z 24/11Z>>
Type OBS PRVL PRVL PRVL PRVL PRVL PRVL PRVL PRVL PRVL PRVL PRVL PRVL PRVL
VIS 10 >6 >6 >6 >6 >6 >6 >6 >6 >6 >6 >6 >6 >6
CIG 200 -- -- 250 250 250 250 250 250 250 250 250 250 250
Cover OVC SCT SCT BKN BKN BKN BKN BKN BKN BKN BKN BKN BKN BKN
FltCat VFR VFR VFR VFR VFR VFR VFR VFR VFR VFR VFR VFR VFR VFR
WX -- -- -- -- -- -- -- -- -- -- -- -- -- --
WDir 130 140 140 140 140 140 140 140 140 140 140 140 140 140
WSpd 3 6 6 6 6 6 6 6 6 6 6 6 6 6
WGst -- -- -- -- -- -- -- -- -- -- -- -- -- --
WSHgt -- -- -- -- -- -- -- -- -- -- -- -- -- --
WSDir -- -- -- -- -- -- -- -- -- -- -- -- -- --
WSSpd -- -- -- -- -- -- -- -- -- -- -- -- -- --
Raw TAF
KMSP 232054Z 2321/2424 14006KT P6SM FEW080 SCT150
  FM240100 14006KT P6SM SCT150 BKN250
  FM241500 13005KT P6SM SCT060 BKN250
  FM242200 12008KT P6SM BKN250


Raw METAR
KMSP 232253Z 13003KT 10SM SCT085 OVC200 17/M01 A3023 RMK AO2 SLP241 T01721011
KMSP 232153Z 14008KT 10SM BKN080 18/M01 A3024 RMK AO2 SLP241 T01781011
KMSP 232053Z 00000KT 10SM SCT080 18/M01 A3025 RMK AO2 SLP245 T01831011 56023
KMSP 231953Z VRB03KT 10SM FEW080 SCT120 SCT170 17/M02 A3027 RMK AO2 SLP251 T01721017

METAR Board
Radar Display
Forecast Discussion
For situational awareness. Not to be used for flight planning purposes.